Time;durP1;ratioP1;P1;durP2;ratioP2;P2;SDS_P1;SDS_P2;PMS_P1;PMS_P2;Temp;Humidity;BMP_temperature;BMP_pressure;BME280_temperature;BME280_humidity;BME280_pressure;Samples;Min_cycle;Max_cycle;Signal;HPM_P1;HPM_P2
2023/09/08 00:01:15;;;;;;;9.07;4.75;;;;;;;25.84;100.00;101389.91;4984451;28;20050;-55
2023/09/08 00:03:41;;;;;;;8.77;5.07;;;;;;;25.83;100.00;101389.13;4990106;28;20100;-51
2023/09/08 00:06:08;;;;;;;8.68;4.20;;;;;;;25.80;100.00;101392.19;4983078;28;20157;-53
2023/09/08 00:08:34;;;;;;;9.10;4.63;;;;;;;25.79;100.00;101379.25;4989421;28;20050;-51
2023/09/08 00:11:01;;;;;;;10.00;4.45;;;;;;;25.76;100.00;101381.06;4984047;28;20054;-48
2023/09/08 00:13:28;;;;;;;10.70;4.85;;;;;;;25.70;100.00;101374.53;4996202;28;20105;-50
2023/09/08 00:15:55;;;;;;;8.60;3.83;;;;;;;25.72;100.00;101376.88;4990403;28;20136;-49
2023/09/08 00:18:21;;;;;;;8.60;4.85;;;;;;;25.72;100.00;101382.56;4992612;28;20054;-48
2023/09/08 00:20:48;;;;;;;13.38;5.13;;;;;;;25.80;100.00;101375.91;4985863;28;20587;-48
2023/09/08 00:23:14;;;;;;;9.23;4.25;;;;;;;25.84;100.00;101370.75;4987976;28;20061;-51
2023/09/08 00:25:41;;;;;;;8.73;4.60;;;;;;;25.94;100.00;101380.66;4995665;28;20513;-49
2023/09/08 00:28:07;;;;;;;8.15;4.00;;;;;;;25.96;100.00;101380.16;4987938;28;20065;-48
2023/09/08 00:30:34;;;;;;;9.85;4.68;;;;;;;25.88;100.00;101379.84;4989016;28;20547;-50
2023/09/08 00:33:00;;;;;;;11.98;4.72;;;;;;;25.85;100.00;101383.69;4981408;28;20141;-49
2023/09/08 00:35:27;;;;;;;10.35;4.78;;;;;;;25.86;100.00;101376.72;4986765;28;20050;-47
2023/09/08 00:37:54;;;;;;;8.27;4.40;;;;;;;25.85;100.00;101378.00;4987903;28;21374;-48
2023/09/08 00:40:20;;;;;;;8.70;4.60;;;;;;;25.89;100.00;101375.69;4992514;28;20041;-47
2023/09/08 00:42:47;;;;;;;8.98;4.53;;;;;;;25.86;100.00;101376.72;4990173;28;20137;-50
2023/09/08 00:45:14;;;;;;;6.80;4.25;;;;;;;25.87;100.00;101369.72;4987001;28;20061;-49
2023/09/08 00:47:41;;;;;;;8.15;4.13;;;;;;;25.92;100.00;101362.50;4988624;28;20636;-49
2023/09/08 00:50:08;;;;;;;11.05;4.88;;;;;;;26.00;100.00;101366.44;4988000;28;20097;-51
2023/09/08 00:52:34;;;;;;;8.27;4.38;;;;;;;26.02;100.00;101376.06;4988067;28;20486;-49
2023/09/08 00:55:01;;;;;;;10.32;4.60;;;;;;;26.03;100.00;101371.94;4984289;28;20584;-52
2023/09/08 00:57:28;;;;;;;12.55;6.05;;;;;;;26.15;100.00;101369.91;4987514;28;20081;-50
2023/09/08 00:59:54;;;;;;;9.73;4.93;;;;;;;26.18;100.00;101374.59;4991226;28;20104;-51
2023/09/08 01:02:22;;;;;;;10.05;4.57;;;;;;;26.20;100.00;101372.81;4992757;28;20050;-50
2023/09/08 01:04:49;;;;;;;10.77;5.15;;;;;;;26.17;100.00;101378.72;4991675;28;20058;-52
2023/09/08 01:07:19;;;;;;;11.00;4.70;;;;;;;26.24;100.00;101370.50;4992622;28;20046;-54
2023/09/08 01:09:46;;;;;;;10.52;4.65;;;;;;;26.21;100.00;101370.72;4991725;28;20070;-51
2023/09/08 01:12:13;;;;;;;8.73;4.40;;;;;;;26.22;100.00;101372.25;4992797;28;20061;-53
2023/09/08 01:14:40;;;;;;;9.10;4.72;;;;;;;26.19;100.00;101371.22;4992718;28;20109;-54
2023/09/08 01:17:07;;;;;;;8.63;4.32;;;;;;;26.14;100.00;101380.53;4990370;28;20054;-52
2023/09/08 01:19:34;;;;;;;9.45;4.60;;;;;;;26.16;100.00;101371.47;4993350;28;20134;-53
2023/09/08 01:22:00;;;;;;;9.93;5.18;;;;;;;26.14;100.00;101374.84;4999567;28;20431;-51
2023/09/08 01:24:52;;;;;;;9.63;4.78;;;;;;;26.14;100.00;101372.00;4995642;28;20940;-53
2023/09/08 01:27:19;;;;;;;9.30;4.90;;;;;;;26.14;100.00;101368.34;4985119;28;20046;-51
2023/09/08 01:29:48;;;;;;;9.52;4.70;;;;;;;26.11;100.00;101375.84;4991983;28;20104;-53
2023/09/08 01:32:16;;;;;;;7.40;4.22;;;;;;;26.08;100.00;101376.88;4992265;28;20113;-48
2023/09/08 01:34:42;;;;;;;9.48;4.75;;;;;;;26.09;100.00;101371.97;4988605;28;20050;-51
2023/09/08 01:37:09;;;;;;;11.10;4.97;;;;;;;26.05;100.00;101366.50;4992241;28;20125;-52
2023/09/08 01:39:35;;;;;;;9.38;4.88;;;;;;;26.03;100.00;101363.41;4992100;28;20038;-51
2023/09/08 01:42:03;;;;;;;7.60;4.57;;;;;;;26.04;100.00;101367.78;4990507;28;20050;-52
2023/09/08 01:44:29;;;;;;;10.70;4.75;;;;;;;26.05;100.00;101365.69;4990924;28;20054;-52
2023/09/08 01:46:56;;;;;;;10.73;4.85;;;;;;;26.01;100.00;101365.94;4993081;28;20066;-51
2023/09/08 01:49:24;;;;;;;11.27;4.25;;;;;;;26.05;100.00;101365.69;4991927;28;20053;-52
2023/09/08 01:51:51;;;;;;;9.80;4.90;;;;;;;26.02;100.00;101361.03;4991690;28;20057;-51
2023/09/08 01:54:18;;;;;;;8.20;4.97;;;;;;;26.04;100.00;101364.16;4989944;28;20057;-52
2023/09/08 01:56:44;;;;;;;10.73;5.38;;;;;;;26.02;100.00;101361.81;4989946;28;20081;-53
2023/09/08 01:59:11;;;;;;;8.23;4.63;;;;;;;26.03;100.00;101354.06;4991622;28;20121;-54
2023/09/08 02:01:37;;;;;;;10.38;5.07;;;;;;;26.01;100.00;101360.22;4990149;28;20081;-53
2023/09/08 02:04:04;;;;;;;11.48;4.85;;;;;;;26.03;100.00;101356.91;4991246;28;20054;-51
2023/09/08 02:06:31;;;;;;;6.95;4.57;;;;;;;26.01;100.00;101357.38;4991095;28;20152;-52
2023/09/08 02:08:57;;;;;;;9.02;4.60;;;;;;;26.00;100.00;101347.28;4990889;28;20050;-51
2023/09/08 02:11:24;;;;;;;10.27;4.75;;;;;;;26.00;100.00;101352.97;4989634;28;20058;-50
2023/09/08 02:13:52;;;;;;;7.28;4.28;;;;;;;26.00;100.00;101357.88;4991759;28;20078;-51
2023/09/08 02:16:19;;;;;;;8.50;4.60;;;;;;;25.99;100.00;101354.25;4991893;28;20058;-53
2023/09/08 02:18:46;;;;;;;8.43;4.47;;;;;;;26.00;100.00;101357.88;4990411;28;20054;-51
2023/09/08 02:21:12;;;;;;;8.88;4.47;;;;;;;25.98;100.00;101354.75;4996987;28;20772;-54
2023/09/08 02:23:39;;;;;;;10.70;4.68;;;;;;;25.97;100.00;101356.84;4989471;28;20061;-52
2023/09/08 02:26:05;;;;;;;11.43;5.03;;;;;;;25.98;100.00;101343.38;4990223;28;20839;-52
2023/09/08 02:28:32;;;;;;;10.40;5.13;;;;;;;25.98;100.00;101352.69;4990815;28;20043;-52
2023/09/08 02:30:59;;;;;;;9.43;4.75;;;;;;;25.96;100.00;101351.66;4989904;28;20046;-52
2023/09/08 02:33:25;;;;;;;10.82;5.13;;;;;;;25.96;100.00;101351.66;4991160;28;20058;-53
2023/09/08 02:35:52;;;;;;;8.88;4.80;;;;;;;25.92;100.00;101357.59;4989513;28;20049;-54
2023/09/08 02:38:19;;;;;;;10.07;5.13;;;;;;;25.94;100.00;101355.00;4996450;28;20080;-52
2023/09/08 02:40:45;;;;;;;10.50;4.82;;;;;;;25.92;100.00;101345.44;4990157;28;20130;-49
2023/09/08 02:43:12;;;;;;;10.18;5.50;;;;;;;25.92;100.00;101351.13;4990434;28;20137;-51
2023/09/08 02:45:38;;;;;;;9.65;4.90;;;;;;;25.94;100.00;101359.91;4988808;28;20046;-52
2023/09/08 02:48:05;;;;;;;11.23;5.00;;;;;;;25.92;100.00;101357.59;4990937;28;20057;-52
2023/09/08 02:50:31;;;;;;;9.15;4.97;;;;;;;25.93;100.00;101364.84;4991001;28;20394;-52
2023/09/08 02:52:58;;;;;;;8.68;4.57;;;;;;;25.93;100.00;101361.22;4987555;28;20077;-51
2023/09/08 02:55:25;;;;;;;9.20;4.75;;;;;;;25.88;100.00;101365.59;4990721;28;20500;-50
2023/09/08 02:57:51;;;;;;;8.75;4.68;;;;;;;25.89;100.00;101361.44;4991762;28;20069;-53
2023/09/08 03:00:18;;;;;;;9.27;4.85;;;;;;;25.90;100.00;101363.03;4990395;28;20046;-51
2023/09/08 03:02:45;;;;;;;10.63;4.32;;;;;;;25.90;100.00;101368.72;4989819;28;20524;-51
2023/09/08 03:05:11;;;;;;;7.55;4.63;;;;;;;25.92;100.00;101359.66;4989505;28;20050;-50
2023/09/08 03:07:39;;;;;;;8.95;4.40;;;;;;;25.88;100.00;101357.03;4989261;28;20779;-52
2023/09/08 03:10:06;;;;;;;7.72;4.78;;;;;;;25.87;100.00;101355.50;4990957;28;20034;-51
2023/09/08 03:12:32;;;;;;;9.48;4.80;;;;;;;25.85;100.00;101354.44;4990505;28;20187;-54
2023/09/08 03:15:01;;;;;;;9.15;4.78;;;;;;;25.86;100.00;101351.09;4993931;28;20045;-53
2023/09/08 03:17:27;;;;;;;10.00;5.32;;;;;;;25.90;100.00;101356.53;4994117;28;20165;-50
2023/09/08 03:19:54;;;;;;;8.10;4.55;;;;;;;25.87;100.00;101352.63;4994118;28;20608;-53
2023/09/08 03:22:20;;;;;;;8.30;4.38;;;;;;;25.88;100.00;101351.34;4987108;28;20097;-51
2023/09/08 03:24:47;;;;;;;8.00;4.40;;;;;;;25.83;100.00;101349.25;4989673;28;20141;-54
2023/09/08 03:27:13;;;;;;;9.05;4.50;;;;;;;25.83;100.00;101335.00;4989987;28;20074;-54
2023/09/08 03:29:40;;;;;;;8.20;4.40;;;;;;;25.84;100.00;101335.78;4990282;28;20046;-53
2023/09/08 03:32:07;;;;;;;9.48;4.90;;;;;;;25.87;100.00;101337.63;4990333;28;20074;-51
2023/09/08 03:34:33;;;;;;;9.77;4.70;;;;;;;25.86;100.00;101331.16;4986313;28;20140;-54
2023/09/08 03:37:00;;;;;;;8.80;4.55;;;;;;;25.83;100.00;101339.91;4989470;28;20055;-52
2023/09/08 03:39:27;;;;;;;9.07;4.40;;;;;;;25.82;100.00;101333.44;4990048;28;20078;-51
2023/09/08 03:41:53;;;;;;;8.93;4.43;;;;;;;25.83;100.00;101343.56;4989945;28;20558;-53
2023/09/08 03:44:20;;;;;;;9.43;4.47;;;;;;;25.83;100.00;101337.88;4987858;28;20073;-53
2023/09/08 03:46:46;;;;;;;7.95;4.35;;;;;;;25.80;100.00;101338.88;4989811;28;20127;-49
2023/09/08 03:49:13;;;;;;;10.80;5.15;;;;;;;25.79;100.00;101342.22;4987372;28;20058;-50
2023/09/08 03:51:39;;;;;;;6.50;3.97;;;;;;;25.77;100.00;101337.03;4988856;28;20121;-53
2023/09/08 03:54:06;;;;;;;9.57;4.57;;;;;;;25.78;100.00;101332.91;4988701;28;20145;-54
2023/09/08 03:56:32;;;;;;;11.27;4.72;;;;;;;25.80;100.00;101327.50;4989349;28;20559;-51
2023/09/08 03:58:59;;;;;;;7.97;4.50;;;;;;;25.78;100.00;101330.06;4988435;28;20165;-52
2023/09/08 04:01:25;;;;;;;6.97;4.55;;;;;;;25.76;100.00;101329.81;4989709;28;20042;-54
2023/09/08 04:03:52;;;;;;;8.30;4.78;;;;;;;25.76;100.00;101332.66;4988696;28;20050;-53
2023/09/08 04:06:19;;;;;;;9.90;5.25;;;;;;;25.76;100.00;101335.50;4989853;28;20046;-53
2023/09/08 04:08:47;;;;;;;9.20;4.60;;;;;;;25.77;100.00;101333.41;4989577;28;20108;-52
2023/09/08 04:11:14;;;;;;;10.43;4.70;;;;;;;25.78;100.00;101337.84;4989787;28;20046;-54
2023/09/08 04:13:40;;;;;;;11.30;5.05;;;;;;;25.77;100.00;101331.34;4986893;28;20133;-54
2023/09/08 04:16:07;;;;;;;8.15;4.70;;;;;;;25.77;100.00;101336.25;4989336;28;20505;-53
2023/09/08 04:18:33;;;;;;;7.78;4.53;;;;;;;25.77;100.00;101330.56;4987463;28;20056;-53
2023/09/08 04:21:00;;;;;;;8.43;4.50;;;;;;;25.77;100.00;101330.56;4989115;28;20054;-51
2023/09/08 04:23:26;;;;;;;9.95;4.55;;;;;;;25.74;100.00;101337.28;4987071;28;20724;-52
2023/09/08 04:25:53;;;;;;;8.32;4.35;;;;;;;25.75;100.00;101336.00;4984410;28;20137;-51
2023/09/08 04:28:20;;;;;;;7.35;4.22;;;;;;;25.75;100.00;101336.75;4987558;28;20049;-50
2023/09/08 04:30:46;;;;;;;10.45;4.68;;;;;;;25.75;100.00;101336.75;4990031;28;20129;-52
2023/09/08 04:33:13;;;;;;;10.73;4.95;;;;;;;25.75;100.00;101333.91;4988268;28;20078;-49
2023/09/08 04:35:39;;;;;;;8.25;4.63;;;;;;;25.74;100.00;101332.38;4986872;28;20054;-52
2023/09/08 04:38:07;;;;;;;10.18;4.93;;;;;;;25.74;100.00;101335.22;4989013;28;20133;-52
2023/09/08 04:40:33;;;;;;;9.25;5.13;;;;;;;25.75;100.00;101336.00;4988773;28;20129;-56
2023/09/08 04:43:00;;;;;;;9.35;4.63;;;;;;;25.74;100.00;101334.41;4988020;28;20078;-52
2023/09/08 04:45:27;;;;;;;8.80;4.57;;;;;;;25.73;100.00;101338.56;4991115;28;20492;-52
2023/09/08 04:47:53;;;;;;;9.57;4.78;;;;;;;25.71;100.00;101336.22;4985469;28;20076;-52
2023/09/08 04:50:20;;;;;;;8.10;4.30;;;;;;;25.74;100.00;101340.13;4993637;28;20038;-53
2023/09/08 04:52:46;;;;;;;7.65;4.40;;;;;;;25.71;100.00;101336.22;4988677;28;20050;-50
2023/09/08 04:55:13;;;;;;;9.48;4.82;;;;;;;25.72;100.00;101346.31;4987661;28;20141;-53
2023/09/08 04:57:39;;;;;;;7.70;4.47;;;;;;;25.73;100.00;101336.50;4994973;28;20121;-53
2023/09/08 05:00:06;;;;;;;8.18;4.30;;;;;;;25.72;100.00;101337.78;4987438;28;20054;-51
2023/09/08 05:02:33;;;;;;;10.43;4.47;;;;;;;25.69;100.00;101338.81;4987947;28;20128;-49
2023/09/08 05:05:00;;;;;;;11.38;5.00;;;;;;;25.71;100.00;101336.22;4986549;28;20046;-51
2023/09/08 05:07:26;;;;;;;8.65;5.07;;;;;;;25.70;100.00;101331.03;4988816;28;20045;-52
2023/09/08 05:09:53;;;;;;;9.35;4.50;;;;;;;25.71;100.00;101339.06;4994060;28;20129;-50
2023/09/08 05:12:23;;;;;;;8.68;4.80;;;;;;;25.70;100.00;101343.22;4988731;28;20060;-49
2023/09/08 05:14:55;;;;;;;9.07;4.75;;;;;;;25.71;100.00;101344.78;4987219;28;20097;-52
2023/09/08 05:17:23;;;;;;;9.68;4.72;;;;;;;25.71;100.00;101341.91;4986621;28;20050;-52
2023/09/08 05:19:50;;;;;;;9.32;4.80;;;;;;;25.68;100.00;101342.94;4988432;28;20054;-53
2023/09/08 05:22:17;;;;;;;7.85;4.50;;;;;;;25.69;100.00;101338.81;4988870;28;20133;-52
2023/09/08 05:24:43;;;;;;;8.02;4.60;;;;;;;25.71;100.00;101330.53;4986321;28;20591;-51
2023/09/08 05:27:10;;;;;;;6.53;3.92;;;;;;;25.71;100.00;101336.22;4988452;28;20125;-53
2023/09/08 05:29:36;;;;;;;7.63;4.03;;;;;;;25.70;100.00;101334.69;4988320;28;20046;-53
2023/09/08 05:32:03;;;;;;;8.02;4.60;;;;;;;25.69;100.00;101338.03;4993616;28;20081;-51
2023/09/08 05:34:29;;;;;;;11.45;4.90;;;;;;;25.69;100.00;101333.13;4988840;28;20093;-55
2023/09/08 05:36:56;;;;;;;8.38;4.50;;;;;;;25.69;100.00;101335.19;4988591;28;20194;-54
2023/09/08 05:39:23;;;;;;;8.38;4.38;;;;;;;25.68;100.00;101333.63;4984639;28;20050;-51
2023/09/08 05:41:49;;;;;;;8.50;4.30;;;;;;;25.68;100.00;101339.31;4997033;28;20645;-52
2023/09/08 05:44:16;;;;;;;9.05;5.10;;;;;;;25.67;100.00;101338.53;4988811;28;20046;-51
2023/09/08 05:46:42;;;;;;;8.15;4.47;;;;;;;25.68;100.00;101340.09;4990883;28;20063;-52
2023/09/08 05:49:09;;;;;;;9.85;4.78;;;;;;;25.68;100.00;101334.38;4991995;28;20080;-55
2023/09/08 05:51:36;;;;;;;8.45;4.43;;;;;;;25.67;100.00;101341.38;4992094;28;20065;-50
2023/09/08 05:54:02;;;;;;;10.43;4.50;;;;;;;25.65;100.00;101341.09;4984606;28;20481;-52
2023/09/08 05:56:31;;;;;;;9.15;4.65;;;;;;;25.63;100.00;101335.16;4991757;28;20046;-55
2023/09/08 05:58:58;;;;;;;9.13;4.70;;;;;;;25.63;100.00;101334.34;4990037;28;20567;-54
2023/09/08 06:01:24;;;;;;;8.25;4.60;;;;;;;25.63;100.00;101346.53;4992113;28;20100;-53
2023/09/08 06:03:51;;;;;;;7.93;4.60;;;;;;;25.63;100.00;101342.91;4991591;28;20058;-50
2023/09/08 06:06:18;;;;;;;9.48;4.93;;;;;;;25.63;100.00;101335.16;4988353;28;20046;-52
2023/09/08 06:08:44;;;;;;;8.27;4.45;;;;;;;25.64;100.00;101345.25;4992596;28;20134;-53
2023/09/08 06:11:12;;;;;;;11.43;4.55;;;;;;;25.63;100.00;101337.22;4989841;28;20416;-54
2023/09/08 06:13:38;;;;;;;9.00;4.55;;;;;;;25.62;100.00;101336.41;4989936;28;20050;-52
2023/09/08 06:16:05;;;;;;;8.43;4.28;;;;;;;25.62;100.00;101336.41;4990975;28;20497;-52
2023/09/08 06:18:32;;;;;;;8.88;4.65;;;;;;;25.60;100.00;101338.22;4991377;28;20057;-53
2023/09/08 06:20:59;;;;;;;8.50;4.57;;;;;;;25.61;100.00;101345.50;4997124;28;20141;-51
2023/09/08 06:23:26;;;;;;;8.90;4.53;;;;;;;25.59;100.00;101339.50;4988694;28;20088;-54
2023/09/08 06:26:00;;;;;;;8.68;4.22;;;;;;;25.59;100.00;101343.16;4990791;28;20140;-54
2023/09/08 06:28:27;;;;;;;11.70;4.53;;;;;;;25.57;100.00;101348.56;4990788;28;20100;-51
2023/09/08 06:30:54;;;;;;;9.57;4.90;;;;;;;25.57;100.00;101350.63;4991102;28;20108;-51
2023/09/08 06:33:22;;;;;;;8.13;4.88;;;;;;;25.59;100.00;101348.84;4991106;28;20393;-51
2023/09/08 06:35:49;;;;;;;8.48;4.63;;;;;;;25.58;100.00;101352.97;4991170;28;20073;-53
2023/09/08 06:38:15;;;;;;;8.50;4.25;;;;;;;25.50;100.00;101351.88;4986674;28;20104;-49
2023/09/08 06:40:42;;;;;;;10.75;4.95;;;;;;;25.62;100.00;101355.59;4987242;28;20125;-51
2023/09/08 06:43:08;;;;;;;15.40;5.13;;;;;;;25.63;100.00;101352.22;4991269;28;20089;-52
2023/09/08 06:45:38;;;;;;;10.30;4.82;;;;;;;25.61;100.00;101354.78;4988243;28;20073;-51
2023/09/08 06:48:05;;;;;;;8.57;4.35;;;;;;;25.61;100.00;101354.03;4989125;28;20077;-53
2023/09/08 06:50:32;;;;;;;9.27;4.80;;;;;;;25.61;100.00;101354.03;4993312;28;20053;-52
2023/09/08 06:53:00;;;;;;;8.73;4.72;;;;;;;25.61;100.00;101351.19;4988459;28;20054;-50
2023/09/08 06:55:27;;;;;;;10.27;5.10;;;;;;;25.61;100.00;101354.78;4990963;28;20046;-51
2023/09/08 06:57:53;;;;;;;11.48;5.47;;;;;;;25.57;100.00;101353.47;4989360;28;20070;-53
2023/09/08 07:00:20;;;;;;;9.35;4.75;;;;;;;25.58;100.00;101355.03;4990147;28;20074;-51
2023/09/08 07:02:48;;;;;;;8.85;4.82;;;;;;;25.59;100.00;101351.69;4990084;28;20540;-50
2023/09/08 07:05:15;;;;;;;8.90;4.95;;;;;;;25.56;100.00;101354.75;4990704;28;20129;-55
2023/09/08 07:07:42;;;;;;;11.95;5.38;;;;;;;25.56;100.00;101352.69;4989764;28;20050;-53
2023/09/08 07:10:10;;;;;;;11.20;4.70;;;;;;;25.55;100.00;101350.34;4991083;28;20050;-55
2023/09/08 07:12:36;;;;;;;12.68;5.00;;;;;;;25.57;100.00;101356.31;4987583;28;20137;-53
2023/09/08 07:15:03;;;;;;;10.00;4.25;;;;;;;25.56;100.00;101358.41;4990532;28;20082;-51
2023/09/08 07:17:30;;;;;;;9.75;4.57;;;;;;;25.57;100.00;101359.16;4989901;28;20108;-53
2023/09/08 07:19:56;;;;;;;8.57;4.95;;;;;;;25.57;100.00;101351.41;4991456;28;20775;-50
2023/09/08 07:22:23;;;;;;;12.35;4.97;;;;;;;25.58;100.00;101364.34;4996351;28;20066;-53
2023/09/08 07:24:49;;;;;;;8.82;4.45;;;;;;;25.59;100.00;101356.59;4987923;28;20132;-54
2023/09/08 07:27:16;;;;;;;8.82;4.38;;;;;;;25.60;100.00;101358.94;4988769;28;20531;-52
2023/09/08 07:29:42;;;;;;;9.25;4.85;;;;;;;25.58;100.00;101355.03;4989349;28;20050;-53
2023/09/08 07:32:09;;;;;;;8.85;4.30;;;;;;;25.58;100.00;101355.81;4991239;28;20133;-51
2023/09/08 07:34:36;;;;;;;13.95;5.60;;;;;;;25.54;100.00;101349.56;4990845;28;20137;-51
2023/09/08 07:37:02;;;;;;;27.35;6.55;;;;;;;25.54;100.00;101358.09;4988722;28;20081;-52
2023/09/08 07:39:30;;;;;;;19.25;5.82;;;;;;;25.55;100.00;101353.22;4987744;28;20058;-47
2023/09/08 07:41:56;;;;;;;18.05;5.80;;;;;;;25.53;100.00;101352.91;4989300;28;20042;-48
2023/09/08 07:44:26;;;;;;;13.77;5.35;;;;;;;25.46;100.00;101351.34;4992379;28;20045;-50
2023/09/08 07:46:55;;;;;;;16.35;6.38;;;;;;;25.51;100.00;101352.66;4989998;28;20754;-50
2023/09/08 07:49:22;;;;;;;17.73;6.90;;;;;;;25.52;100.00;101348.53;4991019;28;20107;-47
2023/09/08 07:51:49;;;;;;;15.55;6.05;;;;;;;25.40;100.00;101356.16;4991363;28;20058;-50
2023/09/08 07:54:15;;;;;;;13.98;6.53;;;;;;;25.48;100.00;101351.59;4989583;28;20073;-52
2023/09/08 07:56:45;;;;;;;17.85;7.68;;;;;;;25.48;100.00;101347.97;4987347;28;20053;-53
2023/09/08 07:59:12;;;;;;;20.67;7.63;;;;;;;25.46;100.00;101354.19;4991754;28;20053;-55
2023/09/08 08:01:39;;;;;;;16.58;7.85;;;;;;;25.50;100.00;101353.94;4989772;28;20046;-52
2023/09/08 08:04:05;;;;;;;14.50;6.50;;;;;;;25.44;100.00;101348.19;4997633;28;20053;-53
2023/09/08 08:06:32;;;;;;;14.15;6.22;;;;;;;25.46;100.00;101345.63;4990040;28;20050;-50
2023/09/08 08:08:59;;;;;;;14.18;6.35;;;;;;;25.49;100.00;101346.69;4985802;28;20104;-54
2023/09/08 08:11:28;;;;;;;13.77;6.50;;;;;;;25.44;100.00;101348.19;4988954;28;20836;-50
2023/09/08 08:13:56;;;;;;;16.35;6.80;;;;;;;25.50;100.00;101353.94;4988867;28;20125;-52
2023/09/08 08:16:23;;;;;;;19.13;6.65;;;;;;;25.52;100.00;101348.53;4989100;28;20065;-54
2023/09/08 08:18:50;;;;;;;14.55;6.25;;;;;;;25.53;100.00;101350.88;4988752;28;20086;-51
2023/09/08 08:21:17;;;;;;;14.40;6.15;;;;;;;25.52;100.00;101352.13;4985669;28;20500;-50
2023/09/08 08:23:43;;;;;;;17.50;6.03;;;;;;;25.55;100.00;101353.22;4986649;28;20054;-52
2023/09/08 08:26:10;;;;;;;14.00;5.63;;;;;;;25.54;100.00;101352.41;4989417;28;20046;-52
2023/09/08 08:28:36;;;;;;;16.92;6.70;;;;;;;25.56;100.00;101349.06;4987300;28;20100;-50
2023/09/08 08:31:04;;;;;;;12.38;5.93;;;;;;;25.54;100.00;101346.72;4979352;28;20058;-53
2023/09/08 08:33:31;;;;;;;14.05;6.38;;;;;;;25.54;100.00;101340.25;4984836;28;20127;-52
2023/09/08 08:35:58;;;;;;;14.82;6.03;;;;;;;25.54;100.00;101340.25;4988141;28;20057;-53
2023/09/08 08:38:25;;;;;;;14.85;5.72;;;;;;;25.54;100.00;101335.34;4988311;28;20049;-50
2023/09/08 08:40:51;;;;;;;16.33;6.13;;;;;;;25.56;100.00;101331.97;4988881;28;20606;-52
2023/09/08 08:43:19;;;;;;;15.02;5.97;;;;;;;25.55;100.00;101334.03;4988712;28;20082;-50
2023/09/08 08:45:46;;;;;;;11.80;5.75;;;;;;;25.55;100.00;101336.88;4988456;28;20142;-51
2023/09/08 08:48:13;;;;;;;15.48;6.07;;;;;;;25.55;100.00;101336.88;4987056;28;20141;-49
2023/09/08 08:50:42;;;;;;;14.40;5.78;;;;;;;25.54;100.00;101338.19;4989031;28;20046;-53
2023/09/08 08:53:12;;;;;;;12.23;5.97;;;;;;;25.54;100.00;101335.34;4984825;28;20046;-50
2023/09/08 08:55:40;;;;;;;16.70;6.18;;;;;;;25.54;100.00;101340.25;4987999;28;20076;-49
2023/09/08 08:58:06;;;;;;;12.48;5.28;;;;;;;25.52;100.00;101334.28;4987358;28;20042;-50
2023/09/08 09:00:37;;;;;;;14.38;5.68;;;;;;;25.54;100.00;101332.47;4986823;28;20117;-52
2023/09/08 09:03:05;;;;;;;16.25;5.88;;;;;;;25.56;100.00;101332.78;4986967;28;20042;-52
2023/09/08 09:05:41;;;;;;;11.00;5.22;;;;;;;25.56;100.00;101335.63;4991941;28;20046;-51
2023/09/08 09:08:14;;;;;;;12.00;5.28;;;;;;;25.54;100.00;101341.03;4987927;28;20079;-54
2023/09/08 09:10:41;;;;;;;11.98;5.07;;;;;;;25.54;100.00;101338.19;4988131;28;20043;-53
2023/09/08 09:13:07;;;;;;;11.85;5.10;;;;;;;25.58;100.00;101337.97;4988871;28;20050;-51
2023/09/08 09:15:34;;;;;;;8.30;4.78;;;;;;;25.56;100.00;101331.97;4986803;28;20070;-51
2023/09/08 09:18:05;;;;;;;9.80;5.13;;;;;;;25.58;100.00;101338.72;4987383;28;20046;-52
2023/09/08 09:20:32;;;;;;;10.60;5.43;;;;;;;25.45;100.00;101331.91;4984626;28;20046;-53
2023/09/08 09:22:59;;;;;;;12.27;5.05;;;;;;;25.41;100.00;101337.78;4987070;28;20054;-52
2023/09/08 09:25:28;;;;;;;14.07;6.20;;;;;;;25.35;100.00;101341.88;5002479;28;20113;-52
2023/09/08 09:27:58;;;;;;;12.35;5.30;;;;;;;25.41;100.00;101331.34;4987106;28;20152;-50
2023/09/08 09:30:26;;;;;;;15.93;5.40;;;;;;;25.37;100.00;101334.41;4988036;28;20062;-52
2023/09/08 09:33:00;;;;;;;12.73;4.95;;;;;;;25.32;100.00;101337.22;4990285;28;20056;-52
2023/09/08 09:35:53;;;;;;;13.60;5.80;;;;;;;25.42;100.00;101332.88;4989316;28;20047;-53
2023/09/08 09:38:21;;;;;;;14.07;5.45;;;;;;;25.39;100.00;101331.84;4985869;28;20038;-53
2023/09/08 09:40:48;;;;;;;14.15;5.70;;;;;;;25.46;100.00;101328.56;4990814;28;20108;-54
2023/09/08 09:43:16;;;;;;;13.25;5.35;;;;;;;25.50;100.00;101329.09;4988841;28;20046;-52
2023/09/08 09:45:45;;;;;;;15.15;5.53;;;;;;;25.48;100.00;101328.06;4999601;28;20599;-54
2023/09/08 09:48:12;;;;;;;12.95;5.28;;;;;;;25.59;100.00;101325.28;4990252;28;20043;-54
2023/09/08 09:50:43;;;;;;;18.15;5.20;;;;;;;25.68;100.00;101328.69;4990877;28;20050;-53
2023/09/08 09:53:14;;;;;;;13.30;5.30;;;;;;;25.69;100.00;101329.47;4986763;28;20054;-53
2023/09/08 09:55:42;;;;;;;14.18;5.60;;;;;;;25.71;100.00;101318.34;4992399;28;20053;-50
2023/09/08 09:58:14;;;;;;;11.20;5.07;;;;;;;25.59;100.00;101323.22;4990444;28;20133;-50
2023/09/08 10:00:41;;;;;;;16.20;5.90;;;;;;;25.48;100.00;101320.28;4994005;28;20058;-52
2023/09/08 10:03:08;;;;;;;15.27;6.20;;;;;;;25.43;100.00;101321.00;4985048;28;20054;-50
2023/09/08 10:05:37;;;;;;;19.85;6.05;;;;;;;25.43;100.00;101320.22;4991667;28;20046;-53
2023/09/08 10:08:04;;;;;;;15.05;5.90;;;;;;;25.44;100.00;101322.59;4991179;28;20050;-49
2023/09/08 10:10:32;;;;;;;14.50;6.40;;;;;;;25.52;100.00;101311.50;4990152;28;20141;-52
2023/09/08 10:13:03;;;;;;;14.68;6.10;;;;;;;25.52;100.00;101317.97;4989708;28;20057;-55
2023/09/08 10:15:31;;;;;;;15.75;6.57;;;;;;;25.53;100.00;101322.41;4990906;28;20493;-53
2023/09/08 10:18:03;;;;;;;12.43;5.45;;;;;;;25.55;100.00;101313.34;4990745;28;20487;-51
2023/09/08 10:20:32;;;;;;;16.38;6.80;;;;;;;25.51;100.00;101316.41;4984970;28;20054;-54
2023/09/08 10:23:04;;;;;;;12.35;5.45;;;;;;;25.47;100.00;101315.09;4991466;28;20053;-53
2023/09/08 10:25:37;;;;;;;13.68;6.03;;;;;;;25.48;100.00;101322.34;4989471;28;20567;-50
2023/09/08 10:28:05;;;;;;;16.42;6.32;;;;;;;25.56;100.00;101318.53;4989309;28;20074;-54
2023/09/08 10:30:32;;;;;;;15.00;5.80;;;;;;;25.69;100.00;101310.34;4989401;28;20058;-55
2023/09/08 10:33:00;;;;;;;13.70;5.43;;;;;;;25.70;100.00;101313.94;4989332;28;20054;-54
2023/09/08 10:35:28;;;;;;;15.10;5.63;;;;;;;25.62;100.00;101310.78;4990842;28;20053;-52
2023/09/08 10:38:31;;;;;;;14.68;6.47;;;;;;;25.66;100.00;101310.56;4990124;28;20050;-54
2023/09/08 10:41:16;;;;;;;14.13;5.45;;;;;;;25.61;100.00;101314.94;4990435;28;20050;-50
2023/09/08 10:43:56;;;;;;;;;;;;;;;25.54;100.00;101308.91;4987059;28;20089;-50
2023/09/08 10:46:27;;;;;;;16.35;6.15;;;;;;;25.54;100.00;101315.41;4984995;28;19918;-51
2023/09/08 10:49:03;;;;;;;14.20;5.10;;;;;;;25.50;100.00;101311.22;4990010;28;20169;-51
2023/09/08 10:51:30;;;;;;;12.65;5.75;;;;;;;25.55;100.00;101301.97;4988324;28;20197;-50
2023/09/08 10:53:57;;;;;;;13.90;5.53;;;;;;;25.62;100.00;101310.78;4990252;28;20109;-51
2023/09/08 10:56:48;;;;;;;16.08;6.00;;;;;;;25.65;100.00;101306.16;4990034;28;20077;-54
2023/09/08 10:59:15;;;;;;;15.05;5.40;;;;;;;25.59;100.00;101308.97;4988971;28;20097;-52
2023/09/08 11:01:42;;;;;;;9.40;5.00;;;;;;;25.69;100.00;101313.19;4988307;28;20054;-51
2023/09/08 11:04:10;;;;;;;12.50;5.05;;;;;;;25.69;100.00;101307.50;4984994;28;20508;-52
2023/09/08 11:06:37;;;;;;;11.38;5.35;;;;;;;25.69;100.00;101313.19;4989997;28;20050;-53
2023/09/08 11:09:07;;;;;;;11.75;5.20;;;;;;;25.71;100.00;101313.44;4986373;28;20050;-54
2023/09/08 11:11:36;;;;;;;12.02;5.18;;;;;;;25.74;100.00;101318.13;4989255;28;20050;-50
2023/09/08 11:14:03;;;;;;;13.57;5.28;;;;;;;25.63;100.00;101312.38;4988416;28;20519;-51
2023/09/08 11:16:33;;;;;;;11.55;4.90;;;;;;;25.74;100.00;101309.59;4985709;28;20051;-53